Time;durP1;ratioP1;P1;durP2;ratioP2;P2;SDS_P1;SDS_P2;PMS_P1;PMS_P2;Temp;Humidity;BMP_temperature;BMP_pressure;BME280_temperature;BME280_humidity;BME280_pressure;Samples;Min_cycle;Max_cycle;Signal;HPM_P1;HPM_P2
2021/12/11 00:02:14;;;;;;;355.65;85.57;;;;;;;;;;5137657;27;20926;-73
2021/12/11 00:04:43;;;;;;;203.53;75.90;;;;;;;;;;5137605;27;20270;-73
2021/12/11 00:07:12;;;;;;;279.93;79.47;;;;;;;;;;5137821;27;20550;-73
2021/12/11 00:09:40;;;;;;;157.83;62.70;;;;;;;;;;5140670;27;20526;-73
2021/12/11 00:12:18;;;;;;;147.10;63.07;;;;;;;;;;5160126;27;20441;-73
2021/12/11 00:14:48;;;;;;;360.50;94.03;;;;;;;;;;5160364;27;20476;-73
2021/12/11 00:17:21;;;;;;;229.93;70.30;;;;;;;;;;5160392;27;20495;-73
2021/12/11 00:19:49;;;;;;;216.23;72.87;;;;;;;;;;5159346;27;20451;-74
2021/12/11 00:22:19;;;;;;;226.63;81.27;;;;;;;;;;5158804;27;20461;-74
2021/12/11 00:24:47;;;;;;;207.00;67.90;;;;;;;;;;5159686;27;20449;-73
2021/12/11 00:27:18;;;;;;;264.00;82.27;;;;;;;;;;5158645;27;20513;-73
2021/12/11 00:29:46;;;;;;;107.63;60.40;;;;;;;;;;5160074;27;20449;-73
2021/12/11 00:32:15;;;;;;;319.10;80.27;;;;;;;;;;5159123;27;20809;-73
2021/12/11 00:34:43;;;;;;;122.20;56.53;;;;;;;;;;5157622;27;20477;-73
2021/12/11 00:37:12;;;;;;;114.27;57.50;;;;;;;;;;5158710;27;20790;-73
2021/12/11 00:39:45;;;;;;;369.33;89.82;;;;;;;;;;5158629;27;20517;-73
2021/12/11 00:42:13;;;;;;;177.93;66.77;;;;;;;;;;5157948;27;20469;-73
2021/12/11 00:44:43;;;;;;;165.67;62.53;;;;;;;;;;5158617;27;20524;-73
2021/12/11 00:47:12;;;;;;;180.23;64.77;;;;;;;;;;5157719;27;20930;-73
2021/12/11 00:49:47;;;;;;;183.30;68.90;;;;;;;;;;5158775;27;20441;-73
2021/12/11 00:52:14;;;;;;;186.77;71.87;;;;;;;;;;5157956;27;20440;-73
2021/12/11 00:54:43;;;;;;;197.90;70.10;;;;;;;;;;5157866;27;20481;-73
2021/12/11 00:57:11;;;;;;;194.03;72.17;;;;;;;;;;5158268;27;21028;-73
2021/12/11 00:59:41;;;;;;;143.17;58.67;;;;;;;;;;5158763;27;20441;-73
2021/12/11 01:02:10;;;;;;;193.33;69.00;;;;;;;;;;5157637;27;20488;-73
2021/12/11 01:04:41;;;;;;;136.17;57.97;;;;;;;;;;5157966;27;20520;-73
2021/12/11 01:07:17;;;;;;;188.87;67.00;;;;;;;;;;5157172;27;20457;-73
2021/12/11 01:09:48;;;;;;;95.10;51.30;;;;;;;;;;5157261;27;20476;-73
2021/12/11 01:12:18;;;;;;;197.90;67.63;;;;;;;;;;5158645;27;20786;-73
2021/12/11 01:14:51;;;;;;;158.43;62.70;;;;;;;;;;5157666;27;20481;-73
2021/12/11 01:17:25;;;;;;;203.10;70.60;;;;;;;;;;5158698;27;20930;-73
2021/12/11 01:20:02;;;;;;;202.73;69.03;;;;;;;;;;5158737;27;20588;-73
2021/12/11 01:22:34;;;;;;;193.43;67.47;;;;;;;;;;5158042;27;20744;-73
2021/12/11 01:25:02;;;;;;;216.00;72.33;;;;;;;;;;5156683;27;20445;-73
2021/12/11 01:27:34;;;;;;;170.20;63.37;;;;;;;;;;5157283;27;20509;-73
2021/12/11 01:30:02;;;;;;;200.97;69.57;;;;;;;;;;5157101;27;20857;-73
2021/12/11 01:32:34;;;;;;;172.33;62.77;;;;;;;;;;5156677;27;20536;-73
2021/12/11 01:35:02;;;;;;;206.67;71.50;;;;;;;;;;5157557;27;20485;-73
2021/12/11 01:37:32;;;;;;;196.63;70.43;;;;;;;;;;5157375;27;20457;-73
2021/12/11 01:40:00;;;;;;;163.43;63.40;;;;;;;;;;5157370;27;20467;-73
2021/12/11 01:42:29;;;;;;;176.23;67.43;;;;;;;;;;5157434;27;20723;-73
2021/12/11 01:44:57;;;;;;;71.00;44.73;;;;;;;;;;5156746;27;20600;-72
2021/12/11 01:47:28;;;;;;;191.03;69.07;;;;;;;;;;5156829;27;20429;-72
2021/12/11 01:49:59;;;;;;;162.20;64.30;;;;;;;;;;5156907;27;20919;-73
2021/12/11 01:52:34;;;;;;;201.63;69.23;;;;;;;;;;5156494;27;20452;-74
2021/12/11 01:55:01;;;;;;;183.90;66.63;;;;;;;;;;5156214;27;20981;-73
2021/12/11 01:57:31;;;;;;;38.30;29.10;;;;;;;;;;5157188;27;20532;-73
2021/12/11 02:00:00;;;;;;;42.10;24.57;;;;;;;;;;5157039;27;20532;-73
2021/12/11 02:02:35;;;;;;;37.33;21.63;;;;;;;;;;5156901;27;20533;-74
2021/12/11 02:05:05;;;;;;;39.37;18.90;;;;;;;;;;5157652;27;20459;-73
2021/12/11 02:07:37;;;;;;;34.57;16.93;;;;;;;;;;5157373;27;20509;-73
2021/12/11 02:10:10;;;;;;;42.67;21.10;;;;;;;;;;5157309;27;20478;-73
2021/12/11 02:12:43;;;;;;;47.17;32.73;;;;;;;;;;5158051;27;20488;-73
2021/12/11 02:15:13;;;;;;;213.73;71.70;;;;;;;;;;5157351;27;20930;-73
2021/12/11 02:17:45;;;;;;;129.60;53.83;;;;;;;;;;5157017;27;20555;-73
2021/12/11 02:20:15;;;;;;;289.85;79.30;;;;;;;;;;5157788;27;20467;-73
2021/12/11 02:22:47;;;;;;;262.52;78.10;;;;;;;;;;5156902;27;20200;-73
2021/12/11 02:25:16;;;;;;;128.30;57.20;;;;;;;;;;5157375;27;20196;-73
2021/12/11 02:27:47;;;;;;;143.40;61.87;;;;;;;;;;5157200;27;20859;-73
2021/12/11 02:30:20;;;;;;;304.15;80.13;;;;;;;;;;5156939;27;20525;-73
2021/12/11 02:32:52;;;;;;;220.17;70.47;;;;;;;;;;5155627;27;20600;-73
2021/12/11 02:35:22;;;;;;;106.83;51.07;;;;;;;;;;5156514;27;20905;-73
2021/12/11 02:37:56;;;;;;;147.13;61.30;;;;;;;;;;5156920;27;20449;-74
2021/12/11 02:40:27;;;;;;;135.87;57.17;;;;;;;;;;5157447;27;20840;-73
2021/12/11 02:42:58;;;;;;;133.60;61.10;;;;;;;;;;5155805;27;20523;-73
2021/12/11 02:45:29;;;;;;;137.53;60.07;;;;;;;;;;5158246;27;20796;-73
2021/12/11 02:47:58;;;;;;;142.63;59.23;;;;;;;;;;5157909;27;20445;-73
2021/12/11 02:50:28;;;;;;;143.17;59.60;;;;;;;;;;5157346;27;20463;-73
2021/12/11 02:53:00;;;;;;;69.83;41.27;;;;;;;;;;5156525;27;20445;-73
2021/12/11 02:55:31;;;;;;;150.50;60.20;;;;;;;;;;5156328;27;20939;-74
2021/12/11 02:58:02;;;;;;;95.30;51.80;;;;;;;;;;5155996;27;20445;-73
2021/12/11 03:00:32;;;;;;;136.23;57.10;;;;;;;;;;5156793;27;20460;-73
2021/12/11 03:03:04;;;;;;;109.53;55.60;;;;;;;;;;5157158;27;20441;-73
2021/12/11 03:05:39;;;;;;;158.10;61.67;;;;;;;;;;5160023;27;20461;-73
2021/12/11 03:08:10;;;;;;;140.37;58.20;;;;;;;;;;5160434;27;20814;-73
2021/12/11 03:10:37;;;;;;;145.97;60.30;;;;;;;;;;5159822;27;20468;-73
2021/12/11 03:13:05;;;;;;;141.67;61.37;;;;;;;;;;5160381;27;20502;-73
2021/12/11 03:15:33;;;;;;;146.47;60.90;;;;;;;;;;5160207;27;20492;-73
2021/12/11 03:18:00;;;;;;;155.73;64.47;;;;;;;;;;5159947;27;20509;-73
2021/12/11 03:20:28;;;;;;;163.53;63.40;;;;;;;;;;5159980;27;20452;-73
2021/12/11 03:22:56;;;;;;;156.93;63.77;;;;;;;;;;5159197;27;20452;-73
2021/12/11 03:25:28;;;;;;;165.80;64.00;;;;;;;;;;5159880;27;20460;-73
2021/12/11 03:27:57;;;;;;;183.07;67.17;;;;;;;;;;5159402;27;20455;-73
2021/12/11 03:30:34;;;;;;;31.83;20.37;;;;;;;;;;5160017;27;20456;-73
2021/12/11 03:33:05;;;;;;;40.90;22.80;;;;;;;;;;5159552;27;20458;-73
2021/12/11 03:35:33;;;;;;;43.53;18.63;;;;;;;;;;5160188;27;20484;-73
2021/12/11 03:38:05;;;;;;;34.87;16.77;;;;;;;;;;5160562;27;20445;-73
2021/12/11 03:40:34;;;;;;;40.60;19.37;;;;;;;;;;5160355;27;20521;-73
2021/12/11 03:43:08;;;;;;;33.10;16.07;;;;;;;;;;5160322;27;20447;-72
2021/12/11 03:45:37;;;;;;;42.33;18.13;;;;;;;;;;5159817;27;20457;-73
2021/12/11 03:48:09;;;;;;;37.07;18.27;;;;;;;;;;5160187;27;20837;-73
2021/12/11 03:50:37;;;;;;;39.83;16.53;;;;;;;;;;5160465;27;20456;-73
2021/12/11 03:53:05;;;;;;;36.53;16.70;;;;;;;;;;5159473;27;20521;-73
2021/12/11 03:55:36;;;;;;;36.80;15.80;;;;;;;;;;5160380;27;20553;-73
2021/12/11 03:58:04;;;;;;;35.50;16.60;;;;;;;;;;5160294;27;20467;-73
2021/12/11 04:00:33;;;;;;;38.83;17.73;;;;;;;;;;5160574;27;20849;-73
2021/12/11 04:03:04;;;;;;;36.90;17.97;;;;;;;;;;5159707;27;20465;-73
2021/12/11 04:05:32;;;;;;;35.17;17.30;;;;;;;;;;5160232;27;20494;-73
2021/12/11 04:08:00;;;;;;;30.67;17.00;;;;;;;;;;5160419;27;20461;-73
2021/12/11 04:10:29;;;;;;;41.50;17.70;;;;;;;;;;5159682;27;20452;-73
2021/12/11 04:13:01;;;;;;;34.23;14.73;;;;;;;;;;5160492;27;20471;-73
2021/12/11 04:15:30;;;;;;;29.90;13.40;;;;;;;;;;5159510;27;20918;-73
2021/12/11 04:18:01;;;;;;;40.43;17.47;;;;;;;;;;5160327;27;20464;-73
2021/12/11 04:20:29;;;;;;;37.10;16.17;;;;;;;;;;5159926;27;20876;-73
2021/12/11 04:22:57;;;;;;;30.40;13.97;;;;;;;;;;5160387;27;20449;-73
2021/12/11 04:25:28;;;;;;;34.17;16.43;;;;;;;;;;5159863;27;20445;-73
2021/12/11 04:27:56;;;;;;;41.97;16.83;;;;;;;;;;5160115;27;20464;-73
2021/12/11 04:30:26;;;;;;;35.13;13.97;;;;;;;;;;5158551;27;20437;-73
2021/12/11 04:32:54;;;;;;;36.33;15.83;;;;;;;;;;5158644;27;20455;-73
2021/12/11 04:35:26;;;;;;;32.30;16.07;;;;;;;;;;5159614;27;20825;-73
2021/12/11 04:37:54;;;;;;;32.10;14.27;;;;;;;;;;5150272;27;20478;-73
2021/12/11 04:40:25;;;;;;;30.03;13.00;;;;;;;;;;5139759;27;20441;-73
2021/12/11 04:42:58;;;;;;;37.80;18.50;;;;;;;;;;5138798;27;20545;-73
2021/12/11 04:45:32;;;;;;;34.70;14.23;;;;;;;;;;5138379;27;20767;-73
2021/12/11 04:48:08;;;;;;;32.40;15.17;;;;;;;;;;5138384;27;20481;-73
2021/12/11 04:50:42;;;;;;;35.73;17.00;;;;;;;;;;5137832;27;20502;-73
2021/12/11 04:53:28;;;;;;;35.97;16.77;;;;;;;;;;5138532;27;20480;-73
2021/12/11 04:56:16;;;;;;;31.57;13.60;;;;;;;;;;5138275;27;20485;-73
2021/12/11 04:58:56;;;;;;;30.70;14.47;;;;;;;;;;5138683;27;20438;-73
2021/12/11 05:01:46;;;;;;;24.63;13.40;;;;;;;;;;5138245;27;20722;-73
2021/12/11 05:04:41;;;;;;;29.80;13.00;;;;;;;;;;5138650;27;20464;-74
2021/12/11 05:07:22;;;;;;;32.23;15.53;;;;;;;;;;5138727;27;20469;-73
2021/12/11 05:09:58;;;;;;;29.30;14.20;;;;;;;;;;5138766;27;20457;-73
2021/12/11 05:12:35;;;;;;;28.33;14.60;;;;;;;;;;5138061;27;20457;-72
2021/12/11 05:15:27;;;;;;;36.23;15.57;;;;;;;;;;5138626;27;20868;-72
2021/12/11 05:17:56;;;;;;;27.53;13.97;;;;;;;;;;5136854;27;20842;-72
2021/12/11 05:20:28;;;;;;;31.27;13.40;;;;;;;;;;5137650;27;20441;-72
2021/12/11 05:22:56;;;;;;;28.73;12.17;;;;;;;;;;5138163;27;20462;-73
2021/12/11 05:25:24;;;;;;;28.13;14.50;;;;;;;;;;5138399;27;20775;-73
2021/12/11 05:27:51;;;;;;;27.30;13.77;;;;;;;;;;5145453;27;20564;-73
2021/12/11 05:30:21;;;;;;;26.80;14.60;;;;;;;;;;5158264;27;20529;-73
2021/12/11 05:32:48;;;;;;;31.43;13.63;;;;;;;;;;5158447;27;20508;-73
2021/12/11 05:35:18;;;;;;;27.67;12.80;;;;;;;;;;5158695;27;20451;-73
2021/12/11 05:37:46;;;;;;;24.53;12.70;;;;;;;;;;5158559;27;20501;-73
2021/12/11 05:40:18;;;;;;;35.57;13.90;;;;;;;;;;5159009;27;20728;-73
2021/12/11 05:42:49;;;;;;;37.47;14.23;;;;;;;;;;5158403;27;20524;-73
2021/12/11 05:45:17;;;;;;;35.53;16.53;;;;;;;;;;5158978;27;20863;-73
2021/12/11 05:47:45;;;;;;;25.47;13.23;;;;;;;;;;5158323;27;20752;-73
2021/12/11 05:50:16;;;;;;;26.20;12.10;;;;;;;;;;5158375;27;20545;-73
2021/12/11 05:52:48;;;;;;;21.63;13.87;;;;;;;;;;5155089;27;20449;-73
2021/12/11 05:55:18;;;;;;;25.47;12.20;;;;;;;;;;5158741;27;20459;-73
2021/12/11 05:57:52;;;;;;;26.63;13.60;;;;;;;;;;5158680;27;20441;-73
2021/12/11 06:00:20;;;;;;;31.13;15.17;;;;;;;;;;5158258;27;20892;-73
2021/12/11 06:02:47;;;;;;;30.20;14.53;;;;;;;;;;5156916;27;20449;-73
2021/12/11 06:05:15;;;;;;;41.10;14.20;;;;;;;;;;5157495;27;20770;-73
2021/12/11 06:07:43;;;;;;;27.03;14.43;;;;;;;;;;5158014;27;20755;-72
2021/12/11 06:10:16;;;;;;;29.93;13.83;;;;;;;;;;5156912;27;20448;-73
2021/12/11 06:12:44;;;;;;;32.77;13.97;;;;;;;;;;5156759;27;20473;-73
2021/12/11 06:15:12;;;;;;;16.40;9.87;;;;;;;;;;5157663;27;20457;-74
2021/12/11 06:17:44;;;;;;;30.67;12.53;;;;;;;;;;5157499;27;20488;-73
2021/12/11 06:20:13;;;;;;;25.70;12.30;;;;;;;;;;5157499;27;20457;-74
2021/12/11 06:22:41;;;;;;;25.70;11.73;;;;;;;;;;5157743;27;20764;-73
2021/12/11 06:25:10;;;;;;;28.97;12.83;;;;;;;;;;5157447;27;20449;-73
2021/12/11 06:27:39;;;;;;;28.03;13.07;;;;;;;;;;5157867;27;20495;-73
2021/12/11 06:30:11;;;;;;;30.00;12.23;;;;;;;;;;5157374;27;20452;-73
2021/12/11 06:32:39;;;;;;;28.20;13.60;;;;;;;;;;5157009;27;20449;-73
2021/12/11 06:35:09;;;;;;;27.07;14.43;;;;;;;;;;5157613;27;20445;-73
2021/12/11 06:37:42;;;;;;;28.73;13.20;;;;;;;;;;5158381;27;20499;-73
2021/12/11 06:40:10;;;;;;;28.17;11.30;;;;;;;;;;5161022;27;20444;-73
2021/12/11 06:42:40;;;;;;;26.63;14.20;;;;;;;;;;5162452;27;20448;-73
2021/12/11 06:45:08;;;;;;;24.90;11.87;;;;;;;;;;5162113;27;20445;-72
2021/12/11 06:47:35;;;;;;;26.90;14.00;;;;;;;;;;5162218;27;20473;-74
2021/12/11 06:50:04;;;;;;;22.47;11.60;;;;;;;;;;5161624;27;20957;-74
2021/12/11 06:52:34;;;;;;;22.63;13.30;;;;;;;;;;5160805;27;20868;-73
2021/12/11 06:55:02;;;;;;;26.73;12.67;;;;;;;;;;5160978;27;20461;-74
2021/12/11 06:57:29;;;;;;;26.97;12.33;;;;;;;;;;5161418;27;20739;-73
2021/12/11 06:59:58;;;;;;;26.23;12.50;;;;;;;;;;5159941;27;20451;-74
2021/12/11 07:02:26;;;;;;;23.13;12.90;;;;;;;;;;5160757;27;20437;-73
2021/12/11 07:04:55;;;;;;;26.13;11.83;;;;;;;;;;5161648;27;20460;-73
2021/12/11 07:07:25;;;;;;;22.10;9.10;;;;;;;;;;5161289;27;20539;-73
2021/12/11 07:09:54;;;;;;;24.67;11.70;;;;;;;;;;5162195;27;20467;-73
2021/12/11 07:12:22;;;;;;;23.87;11.20;;;;;;;;;;5160599;27;20474;-74
2021/12/11 07:14:51;;;;;;;36.47;12.10;;;;;;;;;;5161780;27;20461;-73
2021/12/11 07:17:22;;;;;;;25.60;13.50;;;;;;;;;;5160682;27;20472;-73
2021/12/11 07:19:51;;;;;;;34.37;18.90;;;;;;;;;;5140552;27;20441;-73
2021/12/11 07:22:21;;;;;;;27.00;13.50;;;;;;;;;;5140761;27;20552;-73
2021/12/11 07:24:56;;;;;;;27.33;12.60;;;;;;;;;;5141061;27;20461;-73
2021/12/11 07:27:24;;;;;;;26.23;11.93;;;;;;;;;;5140057;27;20517;-73
2021/12/11 07:29:54;;;;;;;21.63;12.87;;;;;;;;;;5151888;27;20527;-74
2021/12/11 07:32:23;;;;;;;26.13;14.40;;;;;;;;;;5160688;27;20445;-73
2021/12/11 07:34:51;;;;;;;25.30;13.27;;;;;;;;;;5159034;27;20444;-73
2021/12/11 07:37:19;;;;;;;31.00;12.47;;;;;;;;;;5158276;27;20485;-73
2021/12/11 07:39:46;;;;;;;25.80;16.00;;;;;;;;;;5150287;27;20560;-73
2021/12/11 07:42:17;;;;;;;27.60;12.30;;;;;;;;;;5148880;27;20502;-73
2021/12/11 07:45:05;;;;;;;26.10;11.50;;;;;;;;;;5153530;27;20852;-73
2021/12/11 07:47:40;;;;;;;25.83;12.47;;;;;;;;;;5148838;27;20792;-74
2021/12/11 07:50:18;;;;;;;27.10;15.60;;;;;;;;;;5148027;27;20461;-73
2021/12/11 07:52:46;;;;;;;37.23;15.47;;;;;;;;;;5158677;27;20449;-73
2021/12/11 07:55:15;;;;;;;25.40;14.07;;;;;;;;;;5140725;27;20446;-74
2021/12/11 07:57:43;;;;;;;29.50;13.47;;;;;;;;;;5139444;27;20530;-73
2021/12/11 08:00:12;;;;;;;25.90;12.80;;;;;;;;;;5139204;27;20861;-74
2021/12/11 08:02:41;;;;;;;30.30;14.93;;;;;;;;;;5143779;27;20462;-75
2021/12/11 08:05:09;;;;;;;26.17;15.70;;;;;;;;;;5160641;27;20509;-74
2021/12/11 08:07:38;;;;;;;35.13;17.80;;;;;;;;;;5159887;27;20514;-74
2021/12/11 08:10:06;;;;;;;30.13;13.80;;;;;;;;;;5158829;27;20484;-74
2021/12/11 08:12:34;;;;;;;29.50;14.80;;;;;;;;;;5154725;27;20450;-74
2021/12/11 08:15:18;;;;;;;26.50;13.60;;;;;;;;;;5139147;27;20445;-75
2021/12/11 08:17:54;;;;;;;34.27;15.93;;;;;;;;;;5143463;27;20512;-72
2021/12/11 08:20:23;;;;;;;24.90;11.70;;;;;;;;;;5159635;27;20449;-74
2021/12/11 08:22:54;;;;;;;25.97;13.13;;;;;;;;;;5158877;27;20457;-74
2021/12/11 08:25:25;;;;;;;30.13;14.37;;;;;;;;;;5159645;27;20497;-74
2021/12/11 08:27:53;;;;;;;23.90;13.20;;;;;;;;;;5158618;27;20875;-74
2021/12/11 08:30:24;;;;;;;33.10;15.40;;;;;;;;;;5158175;27;20456;-74
2021/12/11 08:32:54;;;;;;;22.70;12.93;;;;;;;;;;5159512;27;20457;-74
2021/12/11 08:35:24;;;;;;;26.90;12.23;;;;;;;;;;5159180;27;20696;-74
2021/12/11 08:37:53;;;;;;;30.87;13.77;;;;;;;;;;5158121;27;20484;-74
2021/12/11 08:40:24;;;;;;;27.00;13.07;;;;;;;;;;5157311;27;20501;-73
2021/12/11 08:42:54;;;;;;;21.63;10.63;;;;;;;;;;5157974;27;20452;-74
2021/12/11 08:45:43;;;;;;;26.83;16.50;;;;;;;;;;5143130;27;20446;-73
2021/12/11 08:48:14;;;;;;;23.63;13.20;;;;;;;;;;5151891;27;20453;-73
2021/12/11 08:50:42;;;;;;;39.87;18.13;;;;;;;;;;5157436;27;20510;-72
2021/12/11 08:53:10;;;;;;;30.87;13.50;;;;;;;;;;5158364;27;20460;-74
2021/12/11 08:55:43;;;;;;;19.83;11.37;;;;;;;;;;5157910;27;20449;-73
2021/12/11 08:58:12;;;;;;;30.97;16.90;;;;;;;;;;5156510;27;20549;-74
2021/12/11 09:00:44;;;;;;;28.37;13.10;;;;;;;;;;5158659;27;20460;-73
2021/12/11 09:03:17;;;;;;;29.73;13.50;;;;;;;;;;5157834;27;20452;-73
2021/12/11 09:05:49;;;;;;;28.27;13.90;;;;;;;;;;5156372;27;20560;-73
2021/12/11 09:08:18;;;;;;;26.13;14.83;;;;;;;;;;5151743;27;20560;-73
2021/12/11 09:10:49;;;;;;;27.30;13.67;;;;;;;;;;5140735;27;20450;-73
2021/12/11 09:13:18;;;;;;;31.87;15.93;;;;;;;;;;5136343;27;20731;-73
2021/12/11 09:15:47;;;;;;;26.40;14.30;;;;;;;;;;5136991;27;20510;-73
2021/12/11 09:18:19;;;;;;;26.07;13.70;;;;;;;;;;5146246;27;20484;-73
2021/12/11 09:20:49;;;;;;;24.40;12.07;;;;;;;;;;5156481;27;20449;-73
2021/12/11 09:23:23;;;;;;;25.57;13.67;;;;;;;;;;5156627;27;20448;-73
2021/12/11 09:25:53;;;;;;;25.90;14.23;;;;;;;;;;5154174;27;20746;-73
2021/12/11 09:32:23;;;;;;;32.30;13.83;;;;;;;;;;5150798;27;20469;-72
2021/12/11 09:35:00;;;;;;;29.17;15.50;;;;;;;;;;5136683;27;20457;-73
2021/12/11 09:37:35;;;;;;;24.77;12.23;;;;;;;;;;5150641;27;20472;-73
2021/12/11 09:40:08;;;;;;;20.43;13.37;;;;;;;;;;5135876;27;20460;-73
2021/12/11 09:42:36;;;;;;;27.40;13.03;;;;;;;;;;5134989;27;20730;-73
2021/12/11 09:45:10;;;;;;;26.00;13.90;;;;;;;;;;5135444;27;21064;-74
2021/12/11 09:47:41;;;;;;;27.00;13.73;;;;;;;;;;5136442;27;20858;-71
2021/12/11 09:50:17;;;;;;;32.27;13.80;;;;;;;;;;5136141;27;20478;-73
2021/12/11 09:52:49;;;;;;;22.00;13.10;;;;;;;;;;5135306;27;21005;-74
2021/12/11 09:55:22;;;;;;;23.40;13.10;;;;;;;;;;5136877;27;21114;-72
2021/12/11 09:57:51;;;;;;;24.07;13.33;;;;;;;;;;5145285;27;20481;-72
2021/12/11 10:00:22;;;;;;;26.00;13.53;;;;;;;;;;5137868;27;20513;-72
2021/12/11 10:02:50;;;;;;;22.53;13.13;;;;;;;;;;5156574;27;20722;-71
2021/12/11 10:05:31;;;;;;;17.13;11.80;;;;;;;;;;5155470;27;20456;-72
2021/12/11 10:08:25;;;;;;;29.60;15.10;;;;;;;;;;5155017;27;20738;-73
2021/12/11 10:10:51;;;;;;;26.73;15.80;;;;;;;;;;5134672;27;20582;-71
2021/12/11 10:13:20;;;;;;;20.70;12.67;;;;;;;;;;5132873;27;20803;-72
2021/12/11 10:15:52;;;;;;;24.13;12.93;;;;;;;;;;5137856;27;20477;-72
2021/12/11 10:18:22;;;;;;;20.57;13.00;;;;;;;;;;5142712;27;20477;-72
2021/12/11 10:20:53;;;;;;;26.63;13.63;;;;;;;;;;5154981;27;20456;-73
2021/12/11 10:23:26;;;;;;;20.67;13.13;;;;;;;;;;5143366;27;21205;-72
2021/12/11 10:25:54;;;;;;;24.23;13.33;;;;;;;;;;5136195;28;20483;-73
2021/12/11 10:28:33;;;;;;;22.50;14.33;;;;;;;;;;5141355;27;20453;-72
2021/12/11 10:31:05;;;;;;;9.17;5.80;;;;;;;;;;5149061;27;20532;-72
2021/12/11 10:33:33;;;;;;;26.53;13.20;;;;;;;;;;5155577;27;20457;-73
2021/12/11 10:36:11;;;;;;;18.20;10.93;;;;;;;;;;5152215;27;20529;-74
2021/12/11 10:38:50;;;;;;;22.40;12.63;;;;;;;;;;5157490;27;20900;-73
2021/12/11 10:41:19;;;;;;;30.13;10.07;;;;;;;;;;5157336;27;20503;-72
2021/12/11 10:43:53;;;;;;;28.40;17.27;;;;;;;;;;5144843;27;20445;-72
2021/12/11 10:46:26;;;;;;;25.50;17.63;;;;;;;;;;5156220;27;20563;-72
2021/12/11 10:48:57;;;;;;;24.33;15.20;;;;;;;;;;5155700;27;20545;-73
2021/12/11 10:51:31;;;;;;;23.10;12.27;;;;;;;;;;5156671;27;20840;-70
2021/12/11 10:54:03;;;;;;;12.70;7.67;;;;;;;;;;5147932;27;20474;-73
2021/12/11 11:00:04;;;;;;;21.20;13.30;;;;;;;;;;5107385;27;20463;-73
2021/12/11 11:05:49;;;;;;;19.23;13.27;;;;;;;;;;5062215;28;20757;-73
2021/12/11 11:08:18;;;;;;;34.43;15.80;;;;;;;;;;5084793;28;20571;-72
2021/12/11 11:10:56;;;;;;;30.30;17.00;;;;;;;;;;5074639;28;20459;-72
2021/12/11 11:13:32;;;;;;;28.10;17.70;;;;;;;;;;5091552;28;20451;-72
2021/12/11 11:16:15;;;;;;;23.23;13.10;;;;;;;;;;5091988;28;20475;-73
2021/12/11 11:24:54;;;;;;;25.73;14.07;;;;;;;;;;5077139;28;20483;-71
2021/12/11 11:27:37;;;;;;;28.40;16.90;;;;;;;;;;5092228;28;21147;-71
2021/12/11 11:30:07;;;;;;;28.50;13.47;;;;;;;;;;5090863;28;20513;-71
2021/12/11 11:32:37;;;;;;;23.63;15.57;;;;;;;;;;5092332;28;20459;-70
2021/12/11 11:35:15;;;;;;;20.70;12.67;;;;;;;;;;5088764;28;20505;-71
2021/12/11 11:37:44;;;;;;;24.87;13.50;;;;;;;;;;5090975;28;20483;-71
2021/12/11 11:40:14;;;;;;;17.00;10.30;;;;;;;;;;5086112;28;20928;-72
2021/12/11 11:42:49;;;;;;;25.73;14.70;;;;;;;;;;5085371;28;20534;-72
2021/12/11 11:45:17;;;;;;;13.87;8.50;;;;;;;;;;5073852;28;20460;-73
2021/12/11 11:50:44;;;;;;;16.00;9.90;;;;;;;;;;5082648;28;20444;-72
2021/12/11 11:53:40;;;;;;;17.13;12.67;;;;;;;;;;5087507;28;21006;-73
2021/12/11 11:56:16;;;;;;;21.80;13.67;;;;;;;;;;5086093;28;20437;-73
2021/12/11 11:58:47;;;;;;;22.47;13.57;;;;;;;;;;5072917;28;20501;-72
2021/12/11 12:01:21;;;;;;;21.40;13.53;;;;;;;;;;5082055;28;20459;-72
2021/12/11 12:03:53;;;;;;;17.73;10.00;;;;;;;;;;5079172;28;20473;-72
2021/12/11 12:06:30;;;;;;;28.90;14.40;;;;;;;;;;5080389;28;20463;-72
2021/12/11 12:08:59;;;;;;;26.70;15.17;;;;;;;;;;5087082;28;20866;-72
2021/12/11 12:11:31;;;;;;;25.77;15.83;;;;;;;;;;5067184;28;20465;-72
2021/12/11 12:14:00;;;;;;;25.77;15.53;;;;;;;;;;5062424;28;20759;-73
2021/12/11 12:16:29;;;;;;;18.20;12.77;;;;;;;;;;5059616;28;20469;-72
2021/12/11 12:19:19;;;;;;;23.00;12.23;;;;;;;;;;5065708;28;20481;-72
2021/12/11 12:21:50;;;;;;;19.10;12.50;;;;;;;;;;5059241;28;20459;-72
2021/12/11 12:27:10;;;;;;;19.63;15.20;;;;;;;;;;5057909;28;20437;-73
2021/12/11 12:29:50;;;;;;;24.77;16.77;;;;;;;;;;5072222;28;20440;-73
2021/12/11 12:32:23;;;;;;;22.20;12.13;;;;;;;;;;5056787;28;20441;-73
2021/12/11 12:34:54;;;;;;;29.30;17.27;;;;;;;;;;5057055;28;20529;-72
2021/12/11 12:37:22;;;;;;;22.87;13.83;;;;;;;;;;5066400;28;20585;-72
2021/12/11 12:40:00;;;;;;;28.23;14.33;;;;;;;;;;5076733;28;21070;-73
2021/12/11 12:42:37;;;;;;;21.60;15.30;;;;;;;;;;5058785;28;20471;-73
2021/12/11 12:45:15;;;;;;;14.10;9.90;;;;;;;;;;5076417;28;20531;-71
2021/12/11 12:47:51;;;;;;;18.97;11.77;;;;;;;;;;5061064;28;20502;-73
2021/12/11 12:50:26;;;;;;;26.60;15.60;;;;;;;;;;5063714;28;20506;-73
2021/12/11 12:52:55;;;;;;;22.53;13.87;;;;;;;;;;5058878;28;20484;-72
2021/12/11 12:55:26;;;;;;;18.77;12.83;;;;;;;;;;5074868;28;20693;-71
2021/12/11 12:57:55;;;;;;;24.63;12.50;;;;;;;;;;5060640;28;20832;-71
2021/12/11 13:00:39;;;;;;;23.20;14.80;;;;;;;;;;5062533;28;20487;-74
2021/12/11 13:03:13;;;;;;;21.73;13.33;;;;;;;;;;5064835;28;20518;-73
2021/12/11 13:05:59;;;;;;;19.63;11.93;;;;;;;;;;5069051;28;20776;-74
2021/12/11 13:11:42;;;;;;;22.33;12.03;;;;;;;;;;5066371;28;20743;-72
2021/12/11 13:14:09;;;;;;;21.00;14.67;;;;;;;;;;5070226;28;20463;-73
2021/12/11 13:16:38;;;;;;;18.47;10.27;;;;;;;;;;5075716;28;20883;-73
2021/12/11 13:19:11;;;;;;;15.00;9.57;;;;;;;;;;5076254;28;20710;-72
2021/12/11 13:21:53;;;;;;;18.40;10.60;;;;;;;;;;5073530;28;20459;-72
2021/12/11 13:24:25;;;;;;;16.10;12.77;;;;;;;;;;5075795;28;20510;-72
2021/12/11 13:26:57;;;;;;;18.53;11.47;;;;;;;;;;5075304;28;20944;-72
2021/12/11 13:29:27;;;;;;;18.27;10.47;;;;;;;;;;5076725;28;20500;-74
2021/12/11 13:32:00;;;;;;;15.33;9.50;;;;;;;;;;5076803;28;20807;-72
2021/12/11 13:34:28;;;;;;;18.80;12.33;;;;;;;;;;5061684;28;20526;-72
2021/12/11 13:36:58;;;;;;;16.90;10.57;;;;;;;;;;5056554;28;20511;-73
2021/12/11 13:39:26;;;;;;;14.13;10.83;;;;;;;;;;5062415;28;20493;-73
2021/12/11 13:41:59;;;;;;;20.83;11.57;;;;;;;;;;5077661;28;20448;-73
2021/12/11 13:44:30;;;;;;;16.10;10.93;;;;;;;;;;5075093;28;20452;-76
2021/12/11 13:47:05;;;;;;;13.77;9.23;;;;;;;;;;5066919;28;20450;-73
2021/12/11 13:49:33;;;;;;;15.77;11.27;;;;;;;;;;5058643;28;20903;-73
2021/12/11 13:52:03;;;;;;;11.83;8.83;;;;;;;;;;5076085;28;20521;-73
2021/12/11 13:54:31;;;;;;;12.17;7.37;;;;;;;;;;5075415;28;20461;-73
2021/12/11 13:57:04;;;;;;;11.50;7.27;;;;;;;;;;5075343;28;20456;-72
2021/12/11 13:59:32;;;;;;;21.80;11.20;;;;;;;;;;5075711;28;20488;-73
2021/12/11 14:02:00;;;;;;;13.90;9.00;;;;;;;;;;5075070;28;20509;-74
2021/12/11 14:04:29;;;;;;;15.73;10.10;;;;;;;;;;5075686;28;21055;-73
2021/12/11 14:07:10;;;;;;;16.70;9.30;;;;;;;;;;5064221;28;20555;-73
2021/12/11 14:09:43;;;;;;;17.20;8.10;;;;;;;;;;5063236;28;20473;-72
2021/12/11 14:12:13;;;;;;;18.20;10.47;;;;;;;;;;5054423;28;21024;-74
2021/12/11 14:14:47;;;;;;;14.47;8.60;;;;;;;;;;5068330;28;20475;-73
2021/12/11 14:17:15;;;;;;;17.70;9.60;;;;;;;;;;5069750;28;20466;-73
2021/12/11 14:19:44;;;;;;;15.63;9.77;;;;;;;;;;5075196;28;20477;-73
2021/12/11 14:22:14;;;;;;;24.27;11.53;;;;;;;;;;5072157;28;20460;-74
2021/12/11 14:24:44;;;;;;;13.00;8.83;;;;;;;;;;5075402;28;20469;-73
2021/12/11 14:27:14;;;;;;;18.43;10.27;;;;;;;;;;5074677;28;20456;-73
2021/12/11 14:32:42;;;;;;;16.83;11.47;;;;;;;;;;5064387;28;20450;-73
2021/12/11 14:35:13;;;;;;;16.80;11.70;;;;;;;;;;5074126;28;20780;-73
2021/12/11 14:37:49;;;;;;;16.50;8.57;;;;;;;;;;5073795;28;20448;-76
2021/12/11 14:40:20;;;;;;;13.13;8.47;;;;;;;;;;5074788;28;20571;-73
2021/12/11 14:42:53;;;;;;;20.23;10.93;;;;;;;;;;5074204;28;20465;-73
2021/12/11 14:45:24;;;;;;;13.23;9.67;;;;;;;;;;5056131;28;20529;-73
2021/12/11 14:47:53;;;;;;;13.67;8.87;;;;;;;;;;5073722;28;20467;-73
2021/12/11 14:50:23;;;;;;;13.60;8.03;;;;;;;;;;5065878;28;20445;-74
2021/12/11 14:53:03;;;;;;;13.30;8.60;;;;;;;;;;5062041;28;20460;-74
2021/12/11 14:55:48;;;;;;;17.73;11.40;;;;;;;;;;5068737;28;20464;-72
2021/12/11 14:58:27;;;;;;;18.60;8.73;;;;;;;;;;5070005;28;20819;-74
2021/12/11 15:01:04;;;;;;;19.10;12.30;;;;;;;;;;5058712;28;20452;-74
2021/12/11 15:03:39;;;;;;;18.07;12.53;;;;;;;;;;5055217;28;20770;-74
2021/12/11 15:06:10;;;;;;;21.23;13.83;;;;;;;;;;5055153;28;20433;-74
2021/12/11 15:08:41;;;;;;;21.50;15.83;;;;;;;;;;5071330;28;20551;-73
2021/12/11 15:11:13;;;;;;;20.90;14.20;;;;;;;;;;5074436;28;20437;-72